sensor_id;sensor_type;location;lat;lon;timestamp;P1;durP1;ratioP1;P2;durP2;ratioP2
13712;SDS011;6928;50.546;7.120;2023-06-26T00:00:44;1.35;;;1.25;;
13712;SDS011;6928;50.546;7.120;2023-06-26T00:03:12;2.95;;;1.23;;
13712;SDS011;6928;50.546;7.120;2023-06-26T00:05:40;1.33;;;1.23;;
13712;SDS011;6928;50.546;7.120;2023-06-26T00:08:06;1.20;;;1.15;;
13712;SDS011;6928;50.546;7.120;2023-06-26T00:10:33;1.95;;;1.73;;
13712;SDS011;6928;50.546;7.120;2023-06-26T00:13:00;1.40;;;1.20;;
13712;SDS011;6928;50.546;7.120;2023-06-26T00:15:28;1.25;;;1.23;;
13712;SDS011;6928;50.546;7.120;2023-06-26T00:17:56;2.00;;;1.30;;
13712;SDS011;6928;50.546;7.120;2023-06-26T00:20:23;1.50;;;1.40;;
13712;SDS011;6928;50.546;7.120;2023-06-26T00:22:51;1.63;;;1.33;;
13712;SDS011;6928;50.546;7.120;2023-06-26T00:25:18;1.90;;;1.70;;
13712;SDS011;6928;50.546;7.120;2023-06-26T00:27:45;2.60;;;1.30;;
13712;SDS011;6928;50.546;7.120;2023-06-26T00:30:12;2.95;;;1.70;;
13712;SDS011;6928;50.546;7.120;2023-06-26T00:32:40;1.70;;;0.98;;
13712;SDS011;6928;50.546;7.120;2023-06-26T00:35:07;1.73;;;1.52;;
13712;SDS011;6928;50.546;7.120;2023-06-26T00:37:33;2.05;;;1.92;;
13712;SDS011;6928;50.546;7.120;2023-06-26T00:40:00;1.45;;;1.35;;
13712;SDS011;6928;50.546;7.120;2023-06-26T00:42:27;1.67;;;1.42;;
13712;SDS011;6928;50.546;7.120;2023-06-26T00:44:53;3.22;;;1.10;;
13712;SDS011;6928;50.546;7.120;2023-06-26T00:47:20;1.50;;;1.40;;
13712;SDS011;6928;50.546;7.120;2023-06-26T00:53:10;6.93;;;1.52;;
13712;SDS011;6928;50.546;7.120;2023-06-26T00:55:37;1.63;;;1.25;;
13712;SDS011;6928;50.546;7.120;2023-06-26T00:58:04;2.22;;;1.60;;
13712;SDS011;6928;50.546;7.120;2023-06-26T01:00:31;1.50;;;1.40;;
13712;SDS011;6928;50.546;7.120;2023-06-26T01:02:58;1.30;;;1.15;;
13712;SDS011;6928;50.546;7.120;2023-06-26T01:05:24;1.50;;;1.40;;
13712;SDS011;6928;50.546;7.120;2023-06-26T01:07:51;1.80;;;1.50;;
13712;SDS011;6928;50.546;7.120;2023-06-26T01:10:19;1.73;;;1.35;;
13712;SDS011;6928;50.546;7.120;2023-06-26T01:12:46;2.10;;;1.52;;
13712;SDS011;6928;50.546;7.120;2023-06-26T01:15:12;2.55;;;2.13;;
13712;SDS011;6928;50.546;7.120;2023-06-26T01:17:39;1.52;;;1.27;;
13712;SDS011;6928;50.546;7.120;2023-06-26T01:20:10;1.10;;;1.02;;
13712;SDS011;6928;50.546;7.120;2023-06-26T01:22:38;1.42;;;1.33;;
13712;SDS011;6928;50.546;7.120;2023-06-26T01:25:12;2.55;;;1.77;;
13712;SDS011;6928;50.546;7.120;2023-06-26T01:27:45;2.22;;;1.23;;
13712;SDS011;6928;50.546;7.120;2023-06-26T01:30:14;1.77;;;1.23;;
13712;SDS011;6928;50.546;7.120;2023-06-26T01:32:42;1.20;;;1.17;;
13712;SDS011;6928;50.546;7.120;2023-06-26T01:35:10;1.17;;;1.08;;
13712;SDS011;6928;50.546;7.120;2023-06-26T01:37:37;1.33;;;1.15;;
13712;SDS011;6928;50.546;7.120;2023-06-26T01:40:04;1.05;;;0.93;;
13712;SDS011;6928;50.546;7.120;2023-06-26T01:42:31;1.52;;;1.35;;
13712;SDS011;6928;50.546;7.120;2023-06-26T01:44:59;1.58;;;1.48;;
13712;SDS011;6928;50.546;7.120;2023-06-26T01:47:30;2.30;;;1.50;;
13712;SDS011;6928;50.546;7.120;2023-06-26T01:50:02;1.15;;;1.13;;
13712;SDS011;6928;50.546;7.120;2023-06-26T01:52:35;4.88;;;1.42;;
13712;SDS011;6928;50.546;7.120;2023-06-26T01:55:08;3.10;;;1.50;;
13712;SDS011;6928;50.546;7.120;2023-06-26T01:57:42;1.35;;;1.17;;
13712;SDS011;6928;50.546;7.120;2023-06-26T02:00:13;1.20;;;1.10;;
13712;SDS011;6928;50.546;7.120;2023-06-26T02:02:43;1.98;;;1.52;;
13712;SDS011;6928;50.546;7.120;2023-06-26T02:05:11;2.03;;;1.15;;
13712;SDS011;6928;50.546;7.120;2023-06-26T02:07:38;2.85;;;1.55;;
13712;SDS011;6928;50.546;7.120;2023-06-26T02:10:05;1.10;;;1.10;;
13712;SDS011;6928;50.546;7.120;2023-06-26T02:12:32;1.35;;;1.25;;
13712;SDS011;6928;50.546;7.120;2023-06-26T02:15:00;1.33;;;1.23;;
13712;SDS011;6928;50.546;7.120;2023-06-26T02:17:28;1.95;;;1.50;;
13712;SDS011;6928;50.546;7.120;2023-06-26T02:19:55;1.23;;;1.10;;
13712;SDS011;6928;50.546;7.120;2023-06-26T02:22:22;2.05;;;1.42;;
13712;SDS011;6928;50.546;7.120;2023-06-26T02:24:48;1.50;;;1.40;;
13712;SDS011;6928;50.546;7.120;2023-06-26T02:27:15;3.13;;;1.40;;
13712;SDS011;6928;50.546;7.120;2023-06-26T02:29:41;3.92;;;1.40;;
13712;SDS011;6928;50.546;7.120;2023-06-26T02:32:08;2.47;;;1.13;;
13712;SDS011;6928;50.546;7.120;2023-06-26T02:34:36;1.30;;;1.02;;
13712;SDS011;6928;50.546;7.120;2023-06-26T02:37:03;1.52;;;1.35;;
13712;SDS011;6928;50.546;7.120;2023-06-26T02:39:32;2.45;;;1.27;;
13712;SDS011;6928;50.546;7.120;2023-06-26T02:41:58;0.93;;;0.88;;
13712;SDS011;6928;50.546;7.120;2023-06-26T02:44:25;1.30;;;1.20;;
13712;SDS011;6928;50.546;7.120;2023-06-26T02:46:52;1.23;;;1.13;;
13712;SDS011;6928;50.546;7.120;2023-06-26T02:49:18;1.52;;;1.33;;
13712;SDS011;6928;50.546;7.120;2023-06-26T02:51:46;0.95;;;0.90;;
13712;SDS011;6928;50.546;7.120;2023-06-26T02:54:12;2.15;;;0.93;;
13712;SDS011;6928;50.546;7.120;2023-06-26T02:56:39;1.40;;;1.30;;
13712;SDS011;6928;50.546;7.120;2023-06-26T02:59:06;1.58;;;1.20;;
13712;SDS011;6928;50.546;7.120;2023-06-26T03:01:32;1.75;;;1.48;;
13712;SDS011;6928;50.546;7.120;2023-06-26T03:03:59;2.55;;;1.30;;
13712;SDS011;6928;50.546;7.120;2023-06-26T03:06:25;1.23;;;1.10;;
13712;SDS011;6928;50.546;7.120;2023-06-26T03:08:53;1.20;;;1.10;;
13712;SDS011;6928;50.546;7.120;2023-06-26T03:11:20;1.50;;;1.40;;
13712;SDS011;6928;50.546;7.120;2023-06-26T03:13:46;1.10;;;1.00;;
13712;SDS011;6928;50.546;7.120;2023-06-26T03:16:13;1.65;;;1.27;;
13712;SDS011;6928;50.546;7.120;2023-06-26T03:18:40;2.08;;;1.38;;
13712;SDS011;6928;50.546;7.120;2023-06-26T03:21:06;1.10;;;1.00;;
13712;SDS011;6928;50.546;7.120;2023-06-26T03:23:34;1.60;;;1.20;;
13712;SDS011;6928;50.546;7.120;2023-06-26T03:26:02;1.42;;;1.33;;
13712;SDS011;6928;50.546;7.120;2023-06-26T03:28:29;1.50;;;1.40;;
13712;SDS011;6928;50.546;7.120;2023-06-26T03:30:57;1.63;;;1.15;;
13712;SDS011;6928;50.546;7.120;2023-06-26T03:33:23;1.60;;;1.10;;
13712;SDS011;6928;50.546;7.120;2023-06-26T03:35:50;1.52;;;1.40;;
13712;SDS011;6928;50.546;7.120;2023-06-26T03:38:17;1.83;;;1.13;;
13712;SDS011;6928;50.546;7.120;2023-06-26T03:40:44;1.58;;;1.48;;
13712;SDS011;6928;50.546;7.120;2023-06-26T03:43:12;1.75;;;1.45;;
13712;SDS011;6928;50.546;7.120;2023-06-26T03:45:39;1.75;;;1.50;;
13712;SDS011;6928;50.546;7.120;2023-06-26T03:48:05;3.17;;;1.10;;
13712;SDS011;6928;50.546;7.120;2023-06-26T03:50:33;1.65;;;1.42;;
13712;SDS011;6928;50.546;7.120;2023-06-26T03:52:59;1.48;;;1.08;;
13712;SDS011;6928;50.546;7.120;2023-06-26T03:55:26;1.30;;;1.15;;
13712;SDS011;6928;50.546;7.120;2023-06-26T03:57:52;1.60;;;1.50;;
13712;SDS011;6928;50.546;7.120;2023-06-26T04:00:20;1.52;;;1.42;;
13712;SDS011;6928;50.546;7.120;2023-06-26T04:02:47;1.25;;;1.15;;
13712;SDS011;6928;50.546;7.120;2023-06-26T04:05:14;1.85;;;1.33;;
13712;SDS011;6928;50.546;7.120;2023-06-26T04:07:41;1.20;;;1.10;;
13712;SDS011;6928;50.546;7.120;2023-06-26T04:10:08;1.85;;;1.67;;
13712;SDS011;6928;50.546;7.120;2023-06-26T04:12:35;1.67;;;1.45;;
13712;SDS011;6928;50.546;7.120;2023-06-26T04:15:02;1.10;;;1.10;;
13712;SDS011;6928;50.546;7.120;2023-06-26T04:17:30;1.25;;;1.17;;
13712;SDS011;6928;50.546;7.120;2023-06-26T04:19:56;1.90;;;1.67;;
13712;SDS011;6928;50.546;7.120;2023-06-26T04:22:23;1.65;;;1.40;;
13712;SDS011;6928;50.546;7.120;2023-06-26T04:24:50;1.42;;;1.33;;
13712;SDS011;6928;50.546;7.120;2023-06-26T04:27:16;1.60;;;1.30;;
13712;SDS011;6928;50.546;7.120;2023-06-26T04:29:43;1.83;;;1.45;;
13712;SDS011;6928;50.546;7.120;2023-06-26T04:32:09;1.88;;;1.50;;
13712;SDS011;6928;50.546;7.120;2023-06-26T04:34:37;1.50;;;1.33;;
13712;SDS011;6928;50.546;7.120;2023-06-26T04:37:06;1.83;;;1.52;;
13712;SDS011;6928;50.546;7.120;2023-06-26T04:39:34;1.20;;;1.10;;
13712;SDS011;6928;50.546;7.120;2023-06-26T04:42:01;2.47;;;1.75;;
13712;SDS011;6928;50.546;7.120;2023-06-26T04:44:28;0.98;;;0.98;;
13712;SDS011;6928;50.546;7.120;2023-06-26T04:46:55;1.52;;;1.42;;
13712;SDS011;6928;50.546;7.120;2023-06-26T04:49:22;1.80;;;1.10;;
13712;SDS011;6928;50.546;7.120;2023-06-26T04:51:50;1.45;;;1.38;;
13712;SDS011;6928;50.546;7.120;2023-06-26T04:54:16;1.30;;;1.20;;
13712;SDS011;6928;50.546;7.120;2023-06-26T04:56:43;1.63;;;1.35;;
13712;SDS011;6928;50.546;7.120;2023-06-26T04:59:12;1.20;;;1.10;;
13712;SDS011;6928;50.546;7.120;2023-06-26T05:01:39;1.27;;;1.17;;
13712;SDS011;6928;50.546;7.120;2023-06-26T05:04:06;1.30;;;1.20;;
13712;SDS011;6928;50.546;7.120;2023-06-26T05:06:33;1.73;;;1.25;;
13712;SDS011;6928;50.546;7.120;2023-06-26T05:09:01;1.88;;;1.35;;
13712;SDS011;6928;50.546;7.120;2023-06-26T05:11:27;1.27;;;1.17;;
13712;SDS011;6928;50.546;7.120;2023-06-26T05:13:54;2.38;;;1.45;;
13712;SDS011;6928;50.546;7.120;2023-06-26T05:16:20;1.48;;;1.38;;
13712;SDS011;6928;50.546;7.120;2023-06-26T05:18:47;13.82;;;1.58;;
13712;SDS011;6928;50.546;7.120;2023-06-26T05:21:14;1.40;;;1.30;;
13712;SDS011;6928;50.546;7.120;2023-06-26T05:23:42;0.90;;;0.90;;
13712;SDS011;6928;50.546;7.120;2023-06-26T05:26:11;1.48;;;1.38;;
13712;SDS011;6928;50.546;7.120;2023-06-26T05:28:38;1.70;;;1.20;;
13712;SDS011;6928;50.546;7.120;2023-06-26T05:31:05;1.77;;;1.10;;
13712;SDS011;6928;50.546;7.120;2023-06-26T05:33:33;2.15;;;1.10;;
13712;SDS011;6928;50.546;7.120;2023-06-26T05:36:01;0.85;;;0.85;;
13712;SDS011;6928;50.546;7.120;2023-06-26T05:38:30;1.60;;;1.15;;
13712;SDS011;6928;50.546;7.120;2023-06-26T05:40:57;1.25;;;1.15;;
13712;SDS011;6928;50.546;7.120;2023-06-26T05:43:25;1.35;;;0.90;;
13712;SDS011;6928;50.546;7.120;2023-06-26T05:45:51;1.35;;;1.25;;
13712;SDS011;6928;50.546;7.120;2023-06-26T05:48:18;1.80;;;1.48;;
13712;SDS011;6928;50.546;7.120;2023-06-26T05:50:45;1.52;;;1.15;;
13712;SDS011;6928;50.546;7.120;2023-06-26T05:53:12;1.48;;;1.38;;
13712;SDS011;6928;50.546;7.120;2023-06-26T05:55:39;1.52;;;1.42;;
13712;SDS011;6928;50.546;7.120;2023-06-26T05:58:07;1.30;;;1.13;;
13712;SDS011;6928;50.546;7.120;2023-06-26T06:00:38;8.38;;;1.70;;
13712;SDS011;6928;50.546;7.120;2023-06-26T06:03:05;1.65;;;1.45;;
13712;SDS011;6928;50.546;7.120;2023-06-26T06:05:31;2.55;;;1.55;;
13712;SDS011;6928;50.546;7.120;2023-06-26T06:07:58;2.33;;;1.40;;
13712;SDS011;6928;50.546;7.120;2023-06-26T06:10:25;1.50;;;1.40;;
13712;SDS011;6928;50.546;7.120;2023-06-26T06:12:51;1.48;;;1.30;;
13712;SDS011;6928;50.546;7.120;2023-06-26T06:15:19;1.23;;;0.90;;
13712;SDS011;6928;50.546;7.120;2023-06-26T06:17:47;1.33;;;1.23;;
13712;SDS011;6928;50.546;7.120;2023-06-26T06:20:14;1.38;;;1.00;;
13712;SDS011;6928;50.546;7.120;2023-06-26T06:22:40;1.05;;;0.95;;
13712;SDS011;6928;50.546;7.120;2023-06-26T06:25:07;0.90;;;0.90;;
13712;SDS011;6928;50.546;7.120;2023-06-26T06:27:34;0.70;;;0.70;;
13712;SDS011;6928;50.546;7.120;2023-06-26T06:30:01;1.65;;;1.02;;
13712;SDS011;6928;50.546;7.120;2023-06-26T06:32:27;1.27;;;1.02;;
13712;SDS011;6928;50.546;7.120;2023-06-26T06:34:56;0.90;;;0.90;;
13712;SDS011;6928;50.546;7.120;2023-06-26T06:37:22;1.13;;;1.02;;
13712;SDS011;6928;50.546;7.120;2023-06-26T06:39:49;1.52;;;0.88;;
13712;SDS011;6928;50.546;7.120;2023-06-26T06:42:15;1.45;;;0.90;;
13712;SDS011;6928;50.546;7.120;2023-06-26T06:44:42;1.23;;;0.90;;
13712;SDS011;6928;50.546;7.120;2023-06-26T06:47:08;1.25;;;1.13;;
13712;SDS011;6928;50.546;7.120;2023-06-26T06:49:35;2.40;;;1.02;;
13712;SDS011;6928;50.546;7.120;2023-06-26T06:52:03;1.77;;;0.90;;
13712;SDS011;6928;50.546;7.120;2023-06-26T06:54:30;1.65;;;0.98;;
13712;SDS011;6928;50.546;7.120;2023-06-26T06:56:57;0.82;;;0.77;;
13712;SDS011;6928;50.546;7.120;2023-06-26T06:59:23;2.13;;;1.00;;
13712;SDS011;6928;50.546;7.120;2023-06-26T07:01:50;1.23;;;1.13;;
13712;SDS011;6928;50.546;7.120;2023-06-26T07:04:16;1.33;;;1.08;;
13712;SDS011;6928;50.546;7.120;2023-06-26T07:06:43;0.93;;;0.88;;
13712;SDS011;6928;50.546;7.120;2023-06-26T07:09:11;0.75;;;0.75;;
13712;SDS011;6928;50.546;7.120;2023-06-26T07:11:37;1.40;;;0.93;;
13712;SDS011;6928;50.546;7.120;2023-06-26T07:14:04;1.23;;;0.63;;
13712;SDS011;6928;50.546;7.120;2023-06-26T07:16:30;0.80;;;0.80;;
13712;SDS011;6928;50.546;7.120;2023-06-26T07:18:57;0.95;;;0.85;;
13712;SDS011;6928;50.546;7.120;2023-06-26T07:21:23;4.85;;;0.68;;
13712;SDS011;6928;50.546;7.120;2023-06-26T07:23:50;1.48;;;1.10;;
13712;SDS011;6928;50.546;7.120;2023-06-26T07:26:18;1.45;;;0.95;;
13712;SDS011;6928;50.546;7.120;2023-06-26T07:28:47;1.63;;;0.93;;
13712;SDS011;6928;50.546;7.120;2023-06-26T07:31:14;1.02;;;0.70;;
13712;SDS011;6928;50.546;7.120;2023-06-26T07:33:41;1.00;;;0.98;;
13712;SDS011;6928;50.546;7.120;2023-06-26T07:36:08;0.65;;;0.60;;
13712;SDS011;6928;50.546;7.120;2023-06-26T07:38:35;0.73;;;0.73;;
13712;SDS011;6928;50.546;7.120;2023-06-26T07:41:01;1.13;;;0.77;;
13712;SDS011;6928;50.546;7.120;2023-06-26T07:43:29;4.05;;;0.85;;
13712;SDS011;6928;50.546;7.120;2023-06-26T07:45:56;0.90;;;0.90;;
13712;SDS011;6928;50.546;7.120;2023-06-26T07:48:23;3.95;;;0.73;;
13712;SDS011;6928;50.546;7.120;2023-06-26T07:50:50;1.25;;;1.13;;
13712;SDS011;6928;50.546;7.120;2023-06-26T07:53:16;1.00;;;0.90;;
13712;SDS011;6928;50.546;7.120;2023-06-26T07:55:43;0.80;;;0.80;;
13712;SDS011;6928;50.546;7.120;2023-06-26T07:58:09;1.92;;;1.05;;
13712;SDS011;6928;50.546;7.120;2023-06-26T08:00:37;0.77;;;0.77;;
13712;SDS011;6928;50.546;7.120;2023-06-26T08:03:04;1.60;;;1.50;;
13712;SDS011;6928;50.546;7.120;2023-06-26T08:05:30;1.15;;;1.05;;
13712;SDS011;6928;50.546;7.120;2023-06-26T08:07:57;5.00;;;1.00;;
13712;SDS011;6928;50.546;7.120;2023-06-26T08:10:23;2.75;;;1.13;;
13712;SDS011;6928;50.546;7.120;2023-06-26T08:12:50;0.82;;;0.82;;
13712;SDS011;6928;50.546;7.120;2023-06-26T08:15:17;1.17;;;1.08;;
13712;SDS011;6928;50.546;7.120;2023-06-26T08:17:47;1.08;;;0.77;;
13712;SDS011;6928;50.546;7.120;2023-06-26T08:20:15;1.85;;;1.02;;
13712;SDS011;6928;50.546;7.120;2023-06-26T08:22:42;1.30;;;0.77;;
13712;SDS011;6928;50.546;7.120;2023-06-26T08:25:09;1.58;;;1.48;;
13712;SDS011;6928;50.546;7.120;2023-06-26T08:27:36;1.88;;;0.80;;
13712;SDS011;6928;50.546;7.120;2023-06-26T08:30:03;2.38;;;2.17;;
13712;SDS011;6928;50.546;7.120;2023-06-26T08:32:30;3.05;;;1.60;;
13712;SDS011;6928;50.546;7.120;2023-06-26T08:34:58;0.88;;;0.88;;
13712;SDS011;6928;50.546;7.120;2023-06-26T08:37:25;1.42;;;1.30;;
13712;SDS011;6928;50.546;7.120;2023-06-26T08:39:51;1.30;;;1.15;;
13712;SDS011;6928;50.546;7.120;2023-06-26T08:42:18;1.15;;;0.82;;
13712;SDS011;6928;50.546;7.120;2023-06-26T08:44:45;0.82;;;0.80;;
13712;SDS011;6928;50.546;7.120;2023-06-26T08:47:12;2.28;;;1.15;;
13712;SDS011;6928;50.546;7.120;2023-06-26T08:49:42;1.33;;;1.23;;
13712;SDS011;6928;50.546;7.120;2023-06-26T08:52:16;1.33;;;1.23;;
13712;SDS011;6928;50.546;7.120;2023-06-26T08:54:46;1.13;;;1.00;;
13712;SDS011;6928;50.546;7.120;2023-06-26T08:57:18;1.73;;;1.05;;
13712;SDS011;6928;50.546;7.120;2023-06-26T08:59:48;4.28;;;0.95;;
13712;SDS011;6928;50.546;7.120;2023-06-26T09:02:15;4.53;;;1.00;;
13712;SDS011;6928;50.546;7.120;2023-06-26T09:04:42;7.57;;;1.23;;
13712;SDS011;6928;50.546;7.120;2023-06-26T09:07:09;1.13;;;0.82;;
13712;SDS011;6928;50.546;7.120;2023-06-26T09:09:37;1.10;;;1.00;;
13712;SDS011;6928;50.546;7.120;2023-06-26T09:12:04;0.80;;;0.80;;
13712;SDS011;6928;50.546;7.120;2023-06-26T09:14:31;1.25;;;1.00;;
13712;SDS011;6928;50.546;7.120;2023-06-26T09:16:58;0.98;;;0.65;;
13712;SDS011;6928;50.546;7.120;2023-06-26T09:19:24;1.00;;;0.90;;
13712;SDS011;6928;50.546;7.120;2023-06-26T09:21:52;0.85;;;0.85;;
13712;SDS011;6928;50.546;7.120;2023-06-26T09:24:19;1.15;;;0.98;;
13712;SDS011;6928;50.546;7.120;2023-06-26T09:26:47;0.90;;;0.90;;
13712;SDS011;6928;50.546;7.120;2023-06-26T09:29:14;2.10;;;0.88;;
13712;SDS011;6928;50.546;7.120;2023-06-26T09:31:41;0.70;;;0.70;;
13712;SDS011;6928;50.546;7.120;2023-06-26T09:34:09;1.10;;;1.00;;
13712;SDS011;6928;50.546;7.120;2023-06-26T09:36:36;1.27;;;1.27;;
13712;SDS011;6928;50.546;7.120;2023-06-26T09:39:03;0.75;;;0.75;;
13712;SDS011;6928;50.546;7.120;2023-06-26T09:41:33;1.00;;;1.00;;
13712;SDS011;6928;50.546;7.120;2023-06-26T09:44:02;0.70;;;0.70;;
13712;SDS011;6928;50.546;7.120;2023-06-26T09:46:29;0.50;;;0.50;;
13712;SDS011;6928;50.546;7.120;2023-06-26T09:49:00;0.88;;;0.88;;
13712;SDS011;6928;50.546;7.120;2023-06-26T09:51:29;0.65;;;0.63;;
13712;SDS011;6928;50.546;7.120;2023-06-26T09:53:56;0.68;;;0.60;;
13712;SDS011;6928;50.546;7.120;2023-06-26T09:56:23;1.13;;;0.70;;
13712;SDS011;6928;50.546;7.120;2023-06-26T09:58:50;0.75;;;0.57;;
13712;SDS011;6928;50.546;7.120;2023-06-26T10:01:18;3.45;;;0.80;;
13712;SDS011;6928;50.546;7.120;2023-06-26T10:03:45;0.60;;;0.50;;
13712;SDS011;6928;50.546;7.120;2023-06-26T10:06:12;1.40;;;0.63;;
13712;SDS011;6928;50.546;7.120;2023-06-26T10:08:39;0.68;;;0.60;;
13712;SDS011;6928;50.546;7.120;2023-06-26T10:11:07;0.82;;;0.80;;
13712;SDS011;6928;50.546;7.120;2023-06-26T10:13:38;0.52;;;0.52;;
13712;SDS011;6928;50.546;7.120;2023-06-26T10:16:08;0.63;;;0.50;;
13712;SDS011;6928;50.546;7.120;2023-06-26T10:18:38;0.63;;;0.40;;
13712;SDS011;6928;50.546;7.120;2023-06-26T10:21:06;0.63;;;0.63;;
13712;SDS011;6928;50.546;7.120;2023-06-26T10:23:35;0.65;;;0.60;;
13712;SDS011;6928;50.546;7.120;2023-06-26T10:26:04;0.70;;;0.70;;
13712;SDS011;6928;50.546;7.120;2023-06-26T10:28:32;1.10;;;0.57;;
13712;SDS011;6928;50.546;7.120;2023-06-26T10:31:00;1.13;;;0.60;;
13712;SDS011;6928;50.546;7.120;2023-06-26T10:33:29;1.70;;;0.55;;
13712;SDS011;6928;50.546;7.120;2023-06-26T10:38:49;1.35;;;0.52;;
13712;SDS011;6928;50.546;7.120;2023-06-26T10:41:19;0.88;;;0.60;;
13712;SDS011;6928;50.546;7.120;2023-06-26T10:43:50;1.85;;;0.70;;
13712;SDS011;6928;50.546;7.120;2023-06-26T10:46:17;2.25;;;0.80;;
13712;SDS011;6928;50.546;7.120;2023-06-26T10:48:58;1.95;;;0.70;;
13712;SDS011;6928;50.546;7.120;2023-06-26T10:51:27;2.88;;;1.05;;
13712;SDS011;6928;50.546;7.120;2023-06-26T10:53:54;0.75;;;0.40;;
13712;SDS011;6928;50.546;7.120;2023-06-26T10:56:21;2.65;;;0.95;;
13712;SDS011;6928;50.546;7.120;2023-06-26T10:59:16;0.63;;;0.32;;
13712;SDS011;6928;50.546;7.120;2023-06-26T11:01:44;0.40;;;0.40;;
13712;SDS011;6928;50.546;7.120;2023-06-26T11:04:14;0.90;;;0.65;;
13712;SDS011;6928;50.546;7.120;2023-06-26T11:06:46;1.98;;;0.30;;
13712;SDS011;6928;50.546;7.120;2023-06-26T11:09:14;1.55;;;0.50;;
13712;SDS011;6928;50.546;7.120;2023-06-26T11:11:56;1.73;;;0.60;;
13712;SDS011;6928;50.546;7.120;2023-06-26T11:14:27;0.50;;;0.50;;
13712;SDS011;6928;50.546;7.120;2023-06-26T11:16:54;1.92;;;0.60;;
13712;SDS011;6928;50.546;7.120;2023-06-26T11:19:22;0.30;;;0.30;;
13712;SDS011;6928;50.546;7.120;2023-06-26T11:21:52;0.25;;;0.25;;
13712;SDS011;6928;50.546;7.120;2023-06-26T11:24:27;0.30;;;0.30;;
13712;SDS011;6928;50.546;7.120;2023-06-26T11:26:59;3.25;;;1.05;;
13712;SDS011;6928;50.546;7.120;2023-06-26T11:29:27;2.88;;;0.45;;
13712;SDS011;6928;50.546;7.120;2023-06-26T11:31:58;1.02;;;0.68;;
13712;SDS011;6928;50.546;7.120;2023-06-26T11:34:28;8.60;;;0.35;;
13712;SDS011;6928;50.546;7.120;2023-06-26T11:36:57;2.40;;;0.50;;
13712;SDS011;6928;50.546;7.120;2023-06-26T11:39:26;1.00;;;0.70;;
13712;SDS011;6928;50.546;7.120;2023-06-26T11:41:52;2.50;;;0.43;;
13712;SDS011;6928;50.546;7.120;2023-06-26T11:44:19;1.30;;;0.60;;
13712;SDS011;6928;50.546;7.120;2023-06-26T11:46:47;1.05;;;0.40;;
13712;SDS011;6928;50.546;7.120;2023-06-26T11:49:20;1.55;;;0.20;;
13712;SDS011;6928;50.546;7.120;2023-06-26T11:51:48;0.35;;;0.35;;
13712;SDS011;6928;50.546;7.120;2023-06-26T11:54:22;2.40;;;0.40;;
13712;SDS011;6928;50.546;7.120;2023-06-26T11:56:53;0.52;;;0.30;;
13712;SDS011;6928;50.546;7.120;2023-06-26T11:59:22;0.75;;;0.32;;
13712;SDS011;6928;50.546;7.120;2023-06-26T12:01:50;0.40;;;0.40;;
13712;SDS011;6928;50.546;7.120;2023-06-26T12:04:17;1.85;;;0.50;;
13712;SDS011;6928;50.546;7.120;2023-06-26T12:06:46;2.30;;;0.50;;
13712;SDS011;6928;50.546;7.120;2023-06-26T12:09:15;1.15;;;0.30;;
13712;SDS011;6928;50.546;7.120;2023-06-26T12:11:44;1.13;;;0.50;;
13712;SDS011;6928;50.546;7.120;2023-06-26T12:14:13;0.25;;;0.25;;
13712;SDS011;6928;50.546;7.120;2023-06-26T12:16:40;0.65;;;0.43;;
13712;SDS011;6928;50.546;7.120;2023-06-26T12:19:07;3.20;;;0.40;;
13712;SDS011;6928;50.546;7.120;2023-06-26T12:21:47;0.30;;;0.30;;
13712;SDS011;6928;50.546;7.120;2023-06-26T12:24:19;0.30;;;0.30;;
13712;SDS011;6928;50.546;7.120;2023-06-26T12:26:47;0.35;;;0.35;;
13712;SDS011;6928;50.546;7.120;2023-06-26T12:29:18;1.95;;;0.63;;
13712;SDS011;6928;50.546;7.120;2023-06-26T12:31:48;0.50;;;0.50;;
13712;SDS011;6928;50.546;7.120;2023-06-26T12:34:26;0.98;;;0.40;;
13712;SDS011;6928;50.546;7.120;2023-06-26T12:36:58;0.45;;;0.38;;
13712;SDS011;6928;50.546;7.120;2023-06-26T12:39:28;2.60;;;0.60;;
13712;SDS011;6928;50.546;7.120;2023-06-26T12:41:56;1.10;;;0.40;;
13712;SDS011;6928;50.546;7.120;2023-06-26T12:44:26;0.32;;;0.32;;
13712;SDS011;6928;50.546;7.120;2023-06-26T12:46:54;0.40;;;0.40;;
13712;SDS011;6928;50.546;7.120;2023-06-26T12:49:28;1.98;;;0.43;;
13712;SDS011;6928;50.546;7.120;2023-06-26T12:51:56;0.85;;;0.40;;
13712;SDS011;6928;50.546;7.120;2023-06-26T12:54:23;0.30;;;0.30;;
13712;SDS011;6928;50.546;7.120;2023-06-26T12:56:51;0.98;;;0.40;;
13712;SDS011;6928;50.546;7.120;2023-06-26T12:59:17;0.32;;;0.30;;
13712;SDS011;6928;50.546;7.120;2023-06-26T13:01:44;0.28;;;0.28;;
13712;SDS011;6928;50.546;7.120;2023-06-26T13:04:10;0.95;;;0.30;;
13712;SDS011;6928;50.546;7.120;2023-06-26T13:06:37;1.27;;;0.43;;
13712;SDS011;6928;50.546;7.120;2023-06-26T13:09:04;1.63;;;0.30;;
13712;SDS011;6928;50.546;7.120;2023-06-26T13:11:31;0.52;;;0.52;;
13712;SDS011;6928;50.546;7.120;2023-06-26T13:13:59;0.73;;;0.55;;
13712;SDS011;6928;50.546;7.120;2023-06-26T13:16:25;0.68;;;0.40;;
13712;SDS011;6928;50.546;7.120;2023-06-26T13:18:52;0.40;;;0.40;;
13712;SDS011;6928;50.546;7.120;2023-06-26T13:21:19;0.80;;;0.45;;
13712;SDS011;6928;50.546;7.120;2023-06-26T13:23:45;0.30;;;0.30;;
13712;SDS011;6928;50.546;7.120;2023-06-26T13:26:12;2.55;;;0.45;;
13712;SDS011;6928;50.546;7.120;2023-06-26T13:28:39;0.73;;;0.55;;
13712;SDS011;6928;50.546;7.120;2023-06-26T13:31:07;0.43;;;0.43;;
13712;SDS011;6928;50.546;7.120;2023-06-26T13:33:33;1.25;;;0.75;;
13712;SDS011;6928;50.546;7.120;2023-06-26T13:36:00;0.95;;;0.50;;
13712;SDS011;6928;50.546;7.120;2023-06-26T13:38:29;0.30;;;0.30;;
13712;SDS011;6928;50.546;7.120;2023-06-26T13:40:56;1.73;;;0.47;;
13712;SDS011;6928;50.546;7.120;2023-06-26T13:43:24;0.63;;;0.50;;
13712;SDS011;6928;50.546;7.120;2023-06-26T13:45:51;0.40;;;0.40;;
13712;SDS011;6928;50.546;7.120;2023-06-26T13:48:19;0.82;;;0.50;;
13712;SDS011;6928;50.546;7.120;2023-06-26T13:50:46;1.95;;;0.30;;
13712;SDS011;6928;50.546;7.120;2023-06-26T13:53:13;0.40;;;0.40;;
13712;SDS011;6928;50.546;7.120;2023-06-26T13:55:40;0.30;;;0.30;;
13712;SDS011;6928;50.546;7.120;2023-06-26T13:58:07;2.25;;;0.30;;
13712;SDS011;6928;50.546;7.120;2023-06-26T14:00:34;0.40;;;0.40;;
13712;SDS011;6928;50.546;7.120;2023-06-26T14:03:02;0.52;;;0.40;;
13712;SDS011;6928;50.546;7.120;2023-06-26T14:05:30;0.90;;;0.40;;
13712;SDS011;6928;50.546;7.120;2023-06-26T14:07:57;0.55;;;0.45;;
13712;SDS011;6928;50.546;7.120;2023-06-26T14:10:23;0.28;;;0.28;;
13712;SDS011;6928;50.546;7.120;2023-06-26T14:12:50;0.45;;;0.45;;
13712;SDS011;6928;50.546;7.120;2023-06-26T14:15:17;0.40;;;0.40;;
13712;SDS011;6928;50.546;7.120;2023-06-26T14:17:43;0.20;;;0.20;;
13712;SDS011;6928;50.546;7.120;2023-06-26T14:20:10;1.05;;;0.40;;
13712;SDS011;6928;50.546;7.120;2023-06-26T14:22:39;0.43;;;0.30;;
13712;SDS011;6928;50.546;7.120;2023-06-26T14:25:06;0.20;;;0.20;;
13712;SDS011;6928;50.546;7.120;2023-06-26T14:27:33;3.65;;;0.40;;
13712;SDS011;6928;50.546;7.120;2023-06-26T14:30:00;0.80;;;0.43;;
13712;SDS011;6928;50.546;7.120;2023-06-26T14:32:27;5.05;;;0.30;;
13712;SDS011;6928;50.546;7.120;2023-06-26T14:34:54;0.45;;;0.30;;
13712;SDS011;6928;50.546;7.120;2023-06-26T14:37:20;0.32;;;0.30;;
13712;SDS011;6928;50.546;7.120;2023-06-26T14:39:48;0.40;;;0.22;;
13712;SDS011;6928;50.546;7.120;2023-06-26T14:42:15;0.60;;;0.60;;
13712;SDS011;6928;50.546;7.120;2023-06-26T14:44:41;2.17;;;0.75;;
13712;SDS011;6928;50.546;7.120;2023-06-26T14:47:08;1.40;;;0.60;;
13712;SDS011;6928;50.546;7.120;2023-06-26T14:49:34;0.75;;;0.75;;
13712;SDS011;6928;50.546;7.120;2023-06-26T14:52:01;3.92;;;0.93;;
13712;SDS011;6928;50.546;7.120;2023-06-26T14:54:27;0.45;;;0.40;;
13712;SDS011;6928;50.546;7.120;2023-06-26T14:56:55;0.30;;;0.30;;
13712;SDS011;6928;50.546;7.120;2023-06-26T14:59:22;1.75;;;0.30;;
13712;SDS011;6928;50.546;7.120;2023-06-26T15:01:48;0.60;;;0.40;;
13712;SDS011;6928;50.546;7.120;2023-06-26T15:04:15;0.30;;;0.30;;
13712;SDS011;6928;50.546;7.120;2023-06-26T15:06:41;1.92;;;0.30;;
13712;SDS011;6928;50.546;7.120;2023-06-26T15:09:08;0.30;;;0.30;;